createdAt,value
2022-08-22T00:01:07.723Z,1.90
2022-08-22T00:02:42.423Z,0.80
2022-08-22T00:03:47.403Z,1.90
2022-08-22T00:06:20.436Z,1.90
2022-08-22T00:09:19.125Z,2.20
2022-08-22T00:11:58.020Z,2.30
2022-08-22T00:14:35.132Z,2.13
2022-08-22T00:17:11.836Z,2.20
2022-08-22T00:20:13.287Z,2.00
2022-08-22T00:22:44.648Z,1.80
2022-08-22T00:25:32.231Z,2.13
2022-08-22T00:28:20.829Z,2.22
2022-08-22T00:30:58.016Z,1.88
2022-08-22T00:33:53.591Z,2.00
2022-08-22T00:36:56.571Z,2.00
2022-08-22T00:39:55.425Z,2.35
2022-08-22T00:43:00.440Z,1.88
2022-08-22T00:46:05.685Z,2.00
2022-08-22T00:48:39.217Z,2.00
2022-08-22T00:51:27.957Z,2.10
2022-08-22T00:54:34.223Z,2.03
2022-08-22T00:57:16.092Z,2.30
2022-08-22T00:59:58.745Z,2.10
2022-08-22T01:02:54.592Z,1.87
2022-08-22T01:05:46.026Z,2.00
2022-08-22T01:08:35.049Z,1.95
2022-08-22T01:11:50.771Z,1.90
2022-08-22T01:14:35.128Z,1.98
2022-08-22T01:17:05.719Z,1.67
2022-08-22T01:20:10.715Z,2.05
2022-08-22T01:23:15.487Z,1.73
2022-08-22T01:26:10.213Z,1.60
2022-08-22T01:28:58.109Z,1.73
2022-08-22T01:31:34.756Z,1.50
2022-08-22T01:34:27.571Z,1.50
2022-08-22T01:37:15.791Z,1.70
2022-08-22T01:40:08.392Z,1.67
2022-08-22T01:43:02.364Z,1.70
2022-08-22T01:46:08.179Z,1.40
2022-08-22T01:48:42.098Z,1.40
2022-08-22T01:51:28.496Z,1.60
2022-08-22T01:54:05.839Z,1.52
2022-08-22T01:56:40.001Z,1.92
2022-08-22T01:59:33.849Z,1.73
2022-08-22T02:02:04.689Z,1.60
2022-08-22T02:04:41.200Z,1.90
2022-08-22T02:07:14.518Z,1.80
2022-08-22T02:10:02.797Z,1.70
2022-08-22T02:12:41.873Z,1.60
2022-08-22T02:15:22.900Z,1.50
2022-08-22T02:17:50.500Z,1.50
2022-08-22T02:20:27.924Z,1.70
2022-08-22T02:23:04.654Z,1.70
2022-08-22T02:25:46.461Z,1.77
2022-08-22T02:28:29.741Z,2.08
2022-08-22T02:31:04.598Z,1.50
2022-08-22T02:33:38.017Z,2.33
2022-08-22T02:36:24.823Z,1.80
2022-08-22T02:39:18.849Z,2.20
2022-08-22T02:41:53.700Z,1.67
2022-08-22T02:44:28.860Z,2.33
2022-08-22T02:47:03.199Z,2.70
2022-08-22T02:49:43.606Z,2.72
2022-08-22T02:52:24.620Z,2.57
2022-08-22T02:55:07.443Z,2.42
2022-08-22T02:57:52.754Z,2.30
2022-08-22T03:00:30.749Z,2.47
2022-08-22T03:03:16.317Z,2.00
2022-08-22T03:05:49.102Z,1.23
2022-08-22T03:08:33.830Z,1.55
2022-08-22T03:11:26.909Z,1.50
2022-08-22T03:14:06.241Z,1.20
2022-08-22T03:16:52.832Z,1.20
2022-08-22T03:19:29.625Z,1.53
2022-08-22T03:22:07.207Z,1.52
2022-08-22T03:25:02.061Z,1.02
2022-08-22T03:27:39.476Z,1.33
2022-08-22T03:30:16.901Z,1.10
2022-08-22T03:32:49.205Z,1.20
2022-08-22T03:35:35.097Z,1.50
2022-08-22T03:38:14.987Z,1.50
2022-08-22T03:41:12.887Z,1.77
2022-08-22T03:44:05.395Z,1.70
2022-08-22T03:47:08.105Z,1.10
2022-08-22T03:50:30.513Z,1.10
2022-08-22T03:53:24.989Z,1.58
2022-08-22T03:56:29.599Z,1.20
2022-08-22T03:59:12.401Z,1.35
2022-08-22T04:02:43.182Z,0.80
2022-08-22T04:05:29.735Z,0.90
2022-08-22T04:08:15.449Z,1.17
2022-08-22T04:11:11.640Z,0.80
2022-08-22T04:14:03.642Z,1.00
2022-08-22T04:16:49.387Z,0.90
2022-08-22T04:19:29.863Z,1.00
2022-08-22T04:22:35.687Z,1.08
2022-08-22T04:25:15.368Z,1.17
2022-08-22T04:28:00.788Z,1.20
2022-08-22T04:30:35.468Z,0.90
2022-08-22T04:33:12.530Z,0.85
2022-08-22T04:35:58.482Z,1.73
2022-08-22T04:38:38.300Z,0.98
2022-08-22T04:41:18.621Z,1.20
2022-08-22T04:43:57.106Z,1.73
2022-08-22T04:46:46.478Z,1.02
2022-08-22T04:49:24.744Z,0.82
2022-08-22T04:52:15.624Z,1.00
2022-08-22T04:54:56.618Z,1.05
2022-08-22T04:57:45.501Z,0.83
2022-08-22T05:00:16.029Z,0.80
2022-08-22T05:02:49.856Z,0.82
2022-08-22T05:05:23.650Z,0.80
2022-08-22T05:07:56.322Z,1.20
2022-08-22T05:10:33.520Z,1.07
2022-08-22T05:13:12.420Z,0.82
2022-08-22T05:15:46.036Z,0.90
2022-08-22T05:18:19.582Z,1.20
2022-08-22T05:20:51.069Z,1.00
2022-08-22T05:23:29.198Z,1.40
2022-08-22T05:26:02.709Z,1.10
2022-08-22T05:28:35.545Z,1.33
2022-08-22T05:31:12.714Z,1.30
2022-08-22T05:33:49.133Z,1.48
2022-08-22T05:36:23.297Z,1.50
2022-08-22T05:38:56.791Z,1.60
2022-08-22T05:41:29.019Z,1.42
2022-08-22T05:43:56.665Z,1.50
2022-08-22T05:46:44.294Z,1.30
2022-08-22T05:49:19.336Z,2.00
2022-08-22T05:52:24.921Z,1.40
2022-08-22T05:55:17.435Z,1.67
2022-08-22T05:57:50.922Z,1.60
2022-08-22T06:00:22.535Z,1.52
2022-08-22T06:03:12.391Z,1.90
2022-08-22T06:05:45.284Z,1.60
2022-08-22T06:08:58.573Z,1.73
2022-08-22T06:11:43.013Z,2.08
2022-08-22T06:14:25.496Z,1.80
2022-08-22T06:17:10.490Z,1.83
2022-08-22T06:19:45.099Z,1.63
2022-08-22T06:22:25.978Z,1.33
2022-08-22T06:25:01.038Z,1.35
2022-08-22T06:27:31.187Z,1.27
2022-08-22T06:30:03.037Z,1.67
2022-08-22T06:32:58.921Z,1.30
2022-08-22T06:35:53.833Z,1.45
2022-08-22T06:38:28.532Z,1.60
2022-08-22T06:40:58.635Z,1.48
2022-08-22T06:43:27.025Z,1.50
2022-08-22T06:45:54.823Z,1.58
2022-08-22T06:48:24.337Z,1.60
2022-08-22T06:50:57.148Z,2.08
2022-08-22T06:53:47.864Z,1.60
2022-08-22T06:56:30.318Z,1.70
2022-08-22T06:59:01.661Z,1.58
2022-08-22T07:01:36.207Z,1.80
2022-08-22T07:04:09.489Z,2.00
2022-08-22T07:06:41.623Z,2.05
2022-08-22T07:09:27.877Z,2.50
2022-08-22T07:12:00.404Z,2.08
2022-08-22T07:14:33.210Z,2.25
2022-08-22T07:17:04.564Z,1.95
2022-08-22T07:19:38.501Z,1.60
2022-08-22T07:22:16.209Z,1.70
2022-08-22T07:24:48.625Z,1.75
2022-08-22T07:27:31.923Z,1.60
2022-08-22T07:30:10.143Z,1.77
2022-08-22T07:32:43.274Z,1.75
2022-08-22T07:35:35.825Z,2.00
2022-08-22T07:38:18.955Z,2.20
2022-08-22T07:41:20.155Z,1.65
2022-08-22T07:44:11.121Z,2.63
2022-08-22T07:47:00.871Z,1.90
2022-08-22T07:49:52.961Z,1.87
2022-08-22T07:52:22.359Z,2.17
2022-08-22T07:54:59.829Z,2.00
2022-08-22T07:57:34.559Z,2.20
2022-08-22T08:00:11.751Z,2.03
2022-08-22T08:02:46.359Z,2.13
2022-08-22T08:05:15.368Z,1.90
2022-08-22T08:07:45.610Z,2.20
2022-08-22T08:10:19.447Z,2.15
2022-08-22T08:13:02.478Z,1.73
2022-08-22T08:15:33.922Z,1.80
2022-08-22T08:18:10.516Z,2.15
2022-08-22T08:20:38.632Z,2.55
2022-08-22T08:23:10.102Z,2.20
2022-08-22T08:26:00.529Z,1.98
2022-08-22T08:28:34.836Z,2.27
2022-08-22T08:31:08.824Z,2.13
2022-08-22T08:33:40.752Z,1.63
2022-08-22T08:36:26.476Z,2.40
2022-08-22T08:39:14.079Z,1.75
2022-08-22T08:41:44.576Z,1.80
2022-08-22T08:44:54.341Z,1.70
2022-08-22T08:47:31.385Z,1.98
2022-08-22T08:50:24.183Z,1.83
2022-08-22T08:53:25.415Z,1.80
2022-08-22T08:56:34.463Z,1.60
2022-08-22T08:59:24.770Z,1.88
2022-08-22T09:01:53.371Z,1.80
2022-08-22T09:04:37.337Z,1.40
2022-08-22T09:07:16.907Z,1.80
2022-08-22T09:10:02.978Z,1.90
2022-08-22T09:12:55.995Z,2.00
2022-08-22T09:15:40.776Z,1.85
2022-08-22T09:18:46.082Z,1.70
2022-08-22T09:22:01.893Z,1.80
2022-08-22T09:25:00.543Z,1.83
2022-08-22T09:27:36.042Z,1.98
2022-08-22T09:30:11.749Z,1.70
2022-08-22T09:32:48.672Z,1.80
2022-08-22T09:35:28.161Z,2.10
2022-08-22T09:38:23.857Z,1.60
2022-08-22T09:41:12.713Z,1.60
2022-08-22T09:44:06.490Z,1.33
2022-08-22T09:46:55.364Z,1.45
2022-08-22T09:49:32.889Z,1.70
2022-08-22T09:52:33.097Z,1.67
2022-08-22T09:55:11.804Z,2.10
2022-08-22T09:58:03.404Z,1.70
2022-08-22T10:00:54.958Z,1.98
2022-08-22T10:03:41.463Z,1.83
2022-08-22T10:06:20.205Z,2.03
2022-08-22T10:08:56.050Z,2.00
2022-08-22T10:11:42.312Z,1.85
2022-08-22T10:14:22.381Z,2.20
2022-08-22T10:17:29.917Z,2.05
2022-08-22T10:20:10.289Z,1.50
2022-08-22T10:23:17.229Z,0.95
2022-08-22T10:25:52.874Z,0.82
2022-08-22T10:28:49.748Z,0.70
2022-08-22T10:31:30.757Z,0.70
2022-08-22T10:34:25.123Z,1.00
2022-08-22T10:37:36.651Z,0.65
2022-08-22T10:40:19.339Z,0.60
2022-08-22T10:43:16.137Z,0.70
2022-08-22T10:45:48.493Z,0.80
2022-08-22T10:48:25.883Z,1.10
2022-08-22T10:51:03.266Z,0.70
2022-08-22T10:56:55.955Z,0.80
2022-08-22T10:59:48.183Z,0.80
2022-08-22T11:02:42.224Z,1.00
2022-08-22T11:05:28.170Z,1.00
2022-08-22T11:08:13.761Z,0.90
2022-08-22T11:11:17.579Z,0.80
2022-08-22T11:14:24.403Z,0.57
2022-08-22T11:17:11.993Z,0.70
2022-08-22T11:20:28.209Z,0.80
2022-08-22T11:23:12.325Z,0.73
2022-08-22T11:25:43.733Z,0.85
2022-08-22T11:28:45.145Z,0.68
2022-08-22T11:31:47.268Z,0.80
2022-08-22T11:34:44.803Z,0.80
2022-08-22T11:37:43.499Z,0.55
2022-08-22T11:40:22.800Z,0.60
2022-08-22T11:42:59.181Z,0.77
2022-08-22T11:45:44.423Z,0.90
2022-08-22T11:48:25.350Z,0.73
2022-08-22T11:50:58.789Z,0.80
2022-08-22T11:53:32.443Z,0.80
2022-08-22T11:56:18.713Z,0.90
2022-08-22T11:59:15.728Z,0.90
2022-08-22T12:01:52.739Z,0.90
2022-08-22T12:04:28.760Z,0.95
2022-08-22T12:07:12.528Z,0.68
2022-08-22T12:09:47.806Z,0.70
2022-08-22T12:12:27.999Z,0.93
2022-08-22T12:15:03.283Z,0.70
2022-08-22T12:18:08.917Z,0.80
2022-08-22T12:20:45.307Z,0.80
2022-08-22T12:23:30.384Z,1.10
2022-08-22T12:26:23.604Z,0.80
2022-08-22T12:29:15.597Z,1.00
2022-08-22T12:32:27.466Z,1.02
2022-08-22T12:34:55.400Z,0.80
2022-08-22T12:37:52.805Z,0.90
2022-08-22T12:40:48.189Z,0.90
2022-08-22T12:43:19.655Z,0.88
2022-08-22T12:46:31.422Z,0.90
2022-08-22T12:49:29.339Z,1.17
2022-08-22T12:51:59.829Z,1.20
2022-08-22T12:54:50.355Z,1.10
2022-08-22T12:57:36.368Z,1.10
2022-08-22T13:00:27.003Z,1.00
2022-08-22T13:03:01.772Z,0.95
2022-08-22T13:05:34.314Z,0.85
2022-08-22T13:08:31.551Z,1.20
2022-08-22T13:11:09.952Z,1.00
2022-08-22T13:13:56.808Z,1.50
2022-08-22T13:16:34.723Z,1.15
2022-08-22T13:19:13.701Z,1.20
2022-08-22T13:22:07.025Z,1.00
2022-08-22T13:24:41.921Z,1.38
2022-08-22T13:27:50.999Z,1.58
2022-08-22T13:30:32.464Z,1.73
2022-08-22T13:33:09.801Z,1.70
2022-08-22T13:35:52.161Z,1.53
2022-08-22T13:38:46.307Z,1.70
2022-08-22T13:41:26.269Z,1.70
2022-08-22T13:44:09.995Z,1.85
2022-08-22T13:46:52.736Z,1.90
2022-08-22T13:49:35.202Z,2.20
2022-08-22T13:52:29.974Z,2.08
2022-08-22T13:55:12.606Z,2.30
2022-08-22T13:57:46.171Z,2.30
2022-08-22T14:00:29.265Z,2.17
2022-08-22T14:03:01.411Z,1.97
2022-08-22T14:05:39.619Z,1.83
2022-08-22T14:08:18.394Z,1.90
2022-08-22T14:10:58.020Z,2.20
2022-08-22T14:13:36.723Z,1.83
2022-08-22T14:16:10.364Z,1.70
2022-08-22T14:18:45.566Z,2.22
2022-08-22T14:21:40.669Z,1.63
2022-08-22T14:24:27.169Z,1.83
2022-08-22T14:27:05.707Z,1.65
2022-08-22T14:29:50.117Z,1.80
2022-08-22T14:32:23.030Z,1.90
2022-08-22T14:35:23.309Z,1.50
2022-08-22T14:38:27.283Z,1.75
2022-08-22T14:41:04.031Z,2.08
2022-08-22T14:43:32.994Z,1.97
2022-08-22T14:46:08.663Z,1.70
2022-08-22T14:48:42.483Z,1.92
2022-08-22T14:51:21.304Z,2.00
2022-08-22T14:53:50.198Z,2.20
2022-08-22T14:56:29.784Z,2.20
2022-08-22T14:59:06.632Z,2.17
2022-08-22T15:01:53.139Z,2.10
2022-08-22T15:04:49.840Z,1.95
2022-08-22T15:07:28.363Z,1.65
2022-08-22T15:10:33.226Z,1.70
2022-08-22T15:13:07.988Z,1.33
2022-08-22T15:15:54.988Z,1.40
2022-08-22T15:18:23.567Z,1.50
2022-08-22T15:21:08.673Z,1.27
2022-08-22T15:23:45.282Z,1.13
2022-08-22T15:26:20.918Z,1.48
2022-08-22T15:28:57.230Z,1.33
2022-08-22T15:31:25.569Z,1.55
2022-08-22T15:34:06.850Z,1.67
2022-08-22T15:36:34.691Z,1.77
2022-08-22T15:39:34.883Z,2.00
2022-08-22T15:42:05.777Z,1.60
2022-08-22T15:44:40.615Z,2.10
2022-08-22T15:47:31.551Z,2.00
2022-08-22T15:50:10.495Z,2.20
2022-08-22T15:53:07.058Z,2.70
2022-08-22T15:55:35.581Z,2.72
2022-08-22T15:58:20.836Z,2.95
2022-08-22T16:01:09.970Z,3.00
2022-08-22T16:04:14.430Z,2.77
2022-08-22T16:06:55.229Z,3.28
2022-08-22T16:09:46.301Z,2.83
2022-08-22T16:12:29.654Z,3.35
2022-08-22T16:14:59.031Z,3.03
2022-08-22T16:17:29.644Z,3.20
2022-08-22T16:20:19.930Z,3.03
2022-08-22T16:22:56.780Z,2.95
2022-08-22T16:25:44.619Z,3.15
2022-08-22T16:28:36.132Z,3.10
2022-08-22T16:31:35.729Z,2.83
2022-08-22T16:34:18.669Z,3.00
2022-08-22T16:37:21.601Z,3.05
2022-08-22T16:40:01.726Z,2.65
2022-08-22T16:42:39.216Z,2.55
2022-08-22T16:45:39.499Z,2.10
2022-08-22T16:48:39.574Z,2.00
2022-08-22T16:51:18.563Z,2.42
2022-08-22T16:54:07.393Z,2.75
2022-08-22T16:57:15.488Z,2.75
2022-08-22T17:00:05.017Z,3.20
2022-08-22T17:03:06.366Z,3.88
2022-08-22T17:05:55.812Z,3.72
2022-08-22T17:08:41.900Z,4.05
2022-08-22T17:11:56.180Z,4.10
2022-08-22T17:14:56.674Z,4.43
2022-08-22T17:17:59.870Z,4.10
2022-08-22T17:20:49.688Z,3.83
2022-08-22T17:23:38.877Z,4.15
2022-08-22T17:26:27.543Z,4.35
2022-08-22T17:29:53.801Z,4.00
2022-08-22T17:32:46.701Z,4.05
2022-08-22T17:35:40.272Z,3.53
2022-08-22T17:38:13.593Z,3.60
2022-08-22T17:40:53.468Z,3.20
2022-08-22T17:43:39.976Z,2.80
2022-08-22T17:46:41.483Z,3.00
2022-08-22T17:49:32.763Z,2.70
2022-08-22T17:52:00.341Z,2.70
2022-08-22T17:54:45.964Z,2.60
2022-08-22T17:57:33.448Z,2.47
2022-08-22T18:00:13.269Z,2.45
2022-08-22T18:03:08.988Z,2.60
2022-08-22T18:05:47.179Z,2.63
2022-08-22T18:09:13.305Z,2.70
2022-08-22T18:11:44.784Z,2.47
2022-08-22T18:14:21.441Z,2.67
2022-08-22T18:16:52.409Z,2.35
2022-08-22T18:19:55.609Z,2.50
2022-08-22T18:22:41.617Z,2.28
2022-08-22T18:25:18.283Z,2.20
2022-08-22T18:27:54.436Z,2.35
2022-08-22T18:30:23.835Z,2.33
2022-08-22T18:33:01.774Z,2.53
2022-08-22T18:35:59.116Z,2.17
2022-08-22T18:38:35.544Z,2.00
2022-08-22T18:41:13.339Z,2.58
2022-08-22T18:43:48.192Z,2.25
2022-08-22T18:46:37.594Z,2.20
2022-08-22T18:49:25.028Z,2.10
2022-08-22T18:52:13.816Z,2.33
2022-08-22T18:55:06.082Z,2.42
2022-08-22T18:57:52.493Z,2.40
2022-08-22T19:00:40.506Z,2.40
2022-08-22T19:03:17.058Z,2.20
2022-08-22T19:06:01.129Z,2.50
2022-08-22T19:08:38.689Z,2.15
2022-08-22T19:11:19.889Z,2.55
2022-08-22T19:13:54.821Z,2.58
2022-08-22T19:16:28.388Z,2.72
2022-08-22T19:19:01.633Z,2.70
2022-08-22T19:21:47.605Z,2.72
2022-08-22T19:24:27.391Z,2.50
2022-08-22T19:27:07.059Z,3.00
2022-08-22T19:29:34.604Z,2.97
2022-08-22T19:32:12.916Z,2.80
2022-08-22T19:34:47.649Z,2.80
2022-08-22T19:37:30.801Z,2.75
2022-08-22T19:40:10.118Z,3.47
2022-08-22T19:42:44.193Z,3.05
2022-08-22T19:45:27.246Z,2.93
2022-08-22T19:48:01.402Z,2.90
2022-08-22T19:50:34.221Z,2.78
2022-08-22T19:53:31.192Z,3.08
2022-08-22T19:56:21.761Z,3.30
2022-08-22T19:59:07.360Z,3.10
2022-08-22T20:01:56.258Z,3.40
2022-08-22T20:04:36.100Z,3.50
2022-08-22T20:07:15.346Z,3.13
2022-08-22T20:10:01.716Z,3.88
2022-08-22T20:12:29.273Z,3.53
2022-08-22T20:14:57.184Z,4.05
2022-08-22T20:17:24.761Z,3.63
2022-08-22T20:22:52.891Z,4.53
2022-08-22T20:25:41.842Z,4.50
2022-08-22T20:28:30.639Z,4.10
2022-08-22T20:31:01.116Z,4.15
2022-08-22T20:33:36.943Z,4.10
2022-08-22T20:36:28.005Z,4.10
2022-08-22T20:39:02.653Z,3.90
2022-08-22T20:41:40.527Z,4.10
2022-08-22T20:44:18.419Z,4.00
2022-08-22T20:46:46.285Z,4.10
2022-08-22T20:49:20.369Z,4.55
2022-08-22T20:51:54.561Z,4.10
2022-08-22T20:54:24.898Z,4.20
2022-08-22T20:56:55.192Z,4.50
2022-08-22T20:59:29.769Z,4.47
2022-08-22T21:02:04.862Z,4.93
2022-08-22T21:04:57.640Z,4.17
2022-08-22T21:07:35.026Z,4.30
2022-08-22T21:10:27.863Z,4.55
2022-08-22T21:13:11.063Z,5.47
2022-08-22T21:15:40.772Z,5.40
2022-08-22T21:18:11.766Z,5.30
2022-08-22T21:20:40.406Z,5.20
2022-08-22T21:23:13.848Z,5.80
2022-08-22T21:25:59.204Z,5.28
2022-08-22T21:28:40.672Z,6.13
2022-08-22T21:31:14.863Z,5.30
2022-08-22T21:33:45.683Z,5.78
2022-08-22T21:36:21.169Z,5.20
2022-08-22T21:39:01.119Z,6.30
2022-08-22T21:41:39.682Z,5.55
2022-08-22T21:44:37.740Z,6.00
2022-08-22T21:47:31.290Z,5.97
2022-08-22T21:50:09.774Z,5.82
2022-08-22T21:52:44.193Z,6.18
2022-08-22T21:55:36.557Z,5.97
2022-08-22T21:58:35.465Z,5.83
2022-08-22T22:01:29.144Z,5.60
2022-08-22T22:04:00.208Z,5.97
2022-08-22T22:06:27.847Z,6.38
2022-08-22T22:08:55.524Z,6.13
2022-08-22T22:11:23.140Z,6.00
2022-08-22T22:13:50.946Z,6.07
2022-08-22T22:16:25.583Z,6.57
2022-08-22T22:18:53.770Z,6.50
2022-08-22T22:21:21.502Z,5.80
2022-08-22T22:23:50.697Z,6.40
2022-08-22T22:26:18.876Z,7.10
2022-08-22T22:28:48.313Z,7.53
2022-08-22T22:31:18.818Z,6.68
2022-08-22T22:33:46.444Z,6.90
2022-08-22T22:36:21.275Z,7.00
2022-08-22T22:38:51.700Z,6.95
2022-08-22T22:41:23.457Z,7.22
2022-08-22T22:43:55.327Z,6.78
2022-08-22T22:46:23.981Z,7.07
2022-08-22T22:48:51.918Z,7.43
2022-08-22T22:51:19.876Z,7.50
2022-08-22T22:53:48.144Z,8.07
2022-08-22T22:56:21.266Z,7.53
2022-08-22T22:58:50.681Z,7.78
2022-08-22T23:01:27.285Z,7.80
2022-08-22T23:03:57.476Z,7.47
2022-08-22T23:06:27.792Z,7.97
2022-08-22T23:08:56.320Z,7.75
2022-08-22T23:11:27.964Z,7.80
2022-08-22T23:13:56.348Z,7.40
2022-08-22T23:16:28.003Z,7.63
2022-08-22T23:18:56.432Z,8.00
2022-08-22T23:21:27.064Z,7.95
2022-08-22T23:23:59.808Z,7.68
2022-08-22T23:26:28.283Z,8.33
2022-08-22T23:28:56.553Z,7.85
2022-08-22T23:31:34.433Z,8.07
2022-08-22T23:34:06.304Z,8.50
2022-08-22T23:36:34.583Z,8.93
2022-08-22T23:39:02.837Z,9.27
2022-08-22T23:41:30.459Z,9.43
2022-08-22T23:43:58.322Z,9.60
2022-08-22T23:46:27.191Z,10.02
2022-08-22T23:48:55.087Z,10.48
2022-08-22T23:51:24.937Z,10.03
2022-08-22T23:53:53.617Z,10.88
2022-08-22T23:56:25.486Z,10.57
2022-08-22T23:58:53.460Z,10.95
